Time;durP1;ratioP1;P1;durP2;ratioP2;P2;SDS_P1;SDS_P2;PMS_P1;PMS_P2;Temp;Humidity;BMP_temperature;BMP_pressure;BME280_temperature;BME280_humidity;BME280_pressure;Samples;Min_cycle;Max_cycle;Signal;HPM_P1;HPM_P2
2023/01/03 00:32:52;;;;;;;1.00;1.00;;;;;;;;;;5030025;28;20231;-34
2023/01/03 00:42:09;;;;;;;2.83;2.07;;;;;;;;;;5026625;28;20305;-33
2023/01/03 00:51:36;;;;;;;1.50;1.10;;;;;;;;;;5015606;28;20314;-38
2023/01/03 00:54:45;;;;;;;4.63;2.40;;;;;;;;;;5033085;28;20215;-31
2023/01/03 01:03:41;;;;;;;1.60;1.40;;;;;;;;;;5035604;28;20246;-34
2023/01/03 01:06:37;;;;;;;1.77;1.40;;;;;;;;;;5024818;28;20198;-32
2023/01/03 01:09:40;;;;;;;1.73;1.53;;;;;;;;;;5033625;28;20241;-35
2023/01/03 01:12:32;;;;;;;1.70;1.20;;;;;;;;;;5031538;28;20276;-32
2023/01/03 01:15:34;;;;;;;1.03;1.00;;;;;;;;;;5028732;28;20229;-35
2023/01/03 01:21:15;;;;;;;1.30;1.20;;;;;;;;;;5022175;28;20234;-35
2023/01/03 01:24:06;;;;;;;1.57;1.37;;;;;;;;;;5030412;28;20215;-35
2023/01/03 01:30:02;;;;;;;2.40;1.27;;;;;;;;;;5031876;28;20233;-36
2023/01/03 01:32:51;;;;;;;1.70;1.20;;;;;;;;;;5034589;28;20261;-31
2023/01/03 01:35:32;;;;;;;1.70;1.27;;;;;;;;;;5035292;28;20215;-32
2023/01/03 01:44:36;;;;;;;1.10;1.10;;;;;;;;;;5028834;28;20237;-33
2023/01/03 01:47:38;;;;;;;1.57;1.10;;;;;;;;;;5022571;28;20213;-31
2023/01/03 01:50:29;;;;;;;1.43;1.10;;;;;;;;;;5023260;28;20230;-34
2023/01/03 01:56:24;;;;;;;1.10;1.00;;;;;;;;;;5016725;28;20210;-33
2023/01/03 01:59:09;;;;;;;1.43;1.00;;;;;;;;;;5021769;28;20308;-36
2023/01/03 02:01:53;;;;;;;1.03;1.00;;;;;;;;;;5033284;28;20227;-34
2023/01/03 02:04:46;;;;;;;1.37;1.10;;;;;;;;;;5033478;28;20245;-34
2023/01/03 02:07:33;;;;;;;1.33;1.00;;;;;;;;;;5029588;28;20218;-38
2023/01/03 02:13:21;;;;;;;1.60;1.07;;;;;;;;;;5025736;28;20210;-32
2023/01/03 02:16:19;;;;;;;1.13;1.00;;;;;;;;;;5034749;28;20217;-36
2023/01/03 02:34:38;;;;;;;1.73;0.90;;;;;;;;;;5025928;28;20214;-26
2023/01/03 02:37:11;;;;;;;1.23;1.00;;;;;;;;;;5016608;28;20203;-27
2023/01/03 02:39:42;;;;;;;1.80;0.90;;;;;;;;;;5028467;28;20586;-27
2023/01/03 02:44:59;;;;;;;1.03;0.93;;;;;;;;;;5020715;28;20210;-27
2023/01/03 02:47:28;;;;;;;2.93;1.03;;;;;;;;;;5028811;28;20207;-28
2023/01/03 02:49:59;;;;;;;1.00;1.00;;;;;;;;;;5029387;28;20641;-26
2023/01/03 02:52:28;;;;;;;1.27;0.90;;;;;;;;;;5024077;28;20236;-30
2023/01/03 02:54:58;;;;;;;1.20;1.10;;;;;;;;;;5029953;28;20206;-28
2023/01/03 02:57:27;;;;;;;1.20;1.10;;;;;;;;;;5025757;28;20206;-28
2023/01/03 02:59:56;;;;;;;0.90;0.90;;;;;;;;;;5023567;28;20237;-29
2023/01/03 03:02:27;;;;;;;1.00;1.00;;;;;;;;;;5030024;28;20222;-28
2023/01/03 03:04:57;;;;;;;0.93;0.90;;;;;;;;;;5030327;28;20210;-28
2023/01/03 03:07:26;;;;;;;0.80;0.80;;;;;;;;;;5018840;28;20203;-29
2023/01/03 03:15:29;;;;;;;0.80;0.80;;;;;;;;;;5025784;28;20225;-25
2023/01/03 03:17:58;;;;;;;0.97;0.97;;;;;;;;;;5030042;28;20203;-26
2023/01/03 03:26:01;;;;;;;0.77;0.77;;;;;;;;;;5023320;28;20217;-28
2023/01/03 03:28:36;;;;;;;1.13;0.83;;;;;;;;;;5020081;28;20215;-29
2023/01/03 03:31:04;;;;;;;0.90;0.90;;;;;;;;;;5028359;28;20217;-26
2023/01/03 03:33:33;;;;;;;0.83;0.80;;;;;;;;;;5029746;28;20210;-28
2023/01/03 03:36:06;;;;;;;0.90;0.90;;;;;;;;;;5015373;28;20799;-28
2023/01/03 03:38:35;;;;;;;1.33;1.10;;;;;;;;;;5021160;28;20213;-26
2023/01/03 03:46:52;;;;;;;1.03;1.00;;;;;;;;;;4960985;28;20200;-29
2023/01/03 03:49:39;;;;;;;1.07;0.97;;;;;;;;;;5015958;28;20206;-28
2023/01/03 03:52:10;;;;;;;0.97;0.97;;;;;;;;;;5017569;28;20225;-27
2023/01/03 03:54:39;;;;;;;1.30;1.00;;;;;;;;;;5029140;28;20210;-28
2023/01/03 03:57:09;;;;;;;0.90;0.87;;;;;;;;;;5024512;28;20578;-27
2023/01/03 03:59:37;;;;;;;1.00;1.00;;;;;;;;;;5025315;28;20571;-28
2023/01/03 04:02:05;;;;;;;1.37;0.93;;;;;;;;;;5033387;28;20222;-29
2023/01/03 04:04:35;;;;;;;0.80;0.80;;;;;;;;;;5033407;28;20289;-28
2023/01/03 04:07:02;;;;;;;1.30;1.20;;;;;;;;;;5023352;28;20207;-27
2023/01/03 04:09:30;;;;;;;1.03;0.70;;;;;;;;;;5023899;28;20221;-26
2023/01/03 04:11:57;;;;;;;0.87;0.83;;;;;;;;;;5029154;28;20233;-29
2023/01/03 04:14:24;;;;;;;1.30;0.90;;;;;;;;;;5027155;28;20214;-27
2023/01/03 04:16:52;;;;;;;2.73;2.40;;;;;;;;;;5032832;28;20203;-28
2023/01/03 04:19:19;;;;;;;2.50;1.97;;;;;;;;;;5032831;28;20210;-26
2023/01/03 04:21:46;;;;;;;1.20;1.10;;;;;;;;;;5026232;28;20223;-28
2023/01/03 04:24:13;;;;;;;0.80;0.80;;;;;;;;;;5029867;28;20217;-29
2023/01/03 04:26:41;;;;;;;2.03;1.20;;;;;;;;;;5031134;28;20214;-28
2023/01/03 04:29:08;;;;;;;1.10;1.00;;;;;;;;;;5016826;28;20202;-26
2023/01/03 04:31:35;;;;;;;1.07;0.97;;;;;;;;;;5031160;28;20219;-28
2023/01/03 04:34:02;;;;;;;1.00;1.00;;;;;;;;;;5032754;28;20225;-26
2023/01/03 04:36:30;;;;;;;0.93;0.93;;;;;;;;;;5029624;28;20214;-28
2023/01/03 04:38:57;;;;;;;0.77;0.77;;;;;;;;;;5026256;28;20207;-26
2023/01/03 04:41:24;;;;;;;1.43;1.03;;;;;;;;;;5020785;28;20237;-26
2023/01/03 04:44:00;;;;;;;1.03;1.00;;;;;;;;;;5020073;28;20222;-28
2023/01/03 04:46:27;;;;;;;0.77;0.77;;;;;;;;;;5029640;28;20570;-28
2023/01/03 04:48:54;;;;;;;0.70;0.70;;;;;;;;;;5032778;28;20214;-26
2023/01/03 04:51:21;;;;;;;1.00;0.87;;;;;;;;;;5025287;28;20696;-27
2023/01/03 04:53:49;;;;;;;1.83;1.10;;;;;;;;;;5023823;28;20213;-28
2023/01/03 04:56:16;;;;;;;1.00;0.87;;;;;;;;;;5032255;28;20214;-28
2023/01/03 04:58:43;;;;;;;1.73;1.13;;;;;;;;;;5018481;28;20207;-29
2023/01/03 05:01:11;;;;;;;2.03;1.93;;;;;;;;;;5031356;28;20596;-25
2023/01/03 05:03:39;;;;;;;1.60;1.50;;;;;;;;;;5031955;28;20613;-27
2023/01/03 05:06:07;;;;;;;2.37;1.40;;;;;;;;;;5021510;28;20233;-29
2023/01/03 05:08:34;;;;;;;3.77;1.87;;;;;;;;;;5024734;28;20587;-27
2023/01/03 05:11:01;;;;;;;1.50;1.40;;;;;;;;;;5031241;28;20226;-26
2023/01/03 05:13:29;;;;;;;2.53;1.80;;;;;;;;;;5017689;28;20211;-26
2023/01/03 05:15:56;;;;;;;1.73;1.60;;;;;;;;;;5030290;28;20672;-28
2023/01/03 05:18:24;;;;;;;1.30;1.20;;;;;;;;;;5031305;28;20566;-28
2023/01/03 05:26:22;;;;;;;1.23;1.20;;;;;;;;;;5031134;28;20210;-26
2023/01/03 05:28:51;;;;;;;0.87;0.87;;;;;;;;;;5018444;28;20631;-30
2023/01/03 05:31:18;;;;;;;0.83;0.83;;;;;;;;;;5030672;28;20254;-28
2023/01/03 05:33:47;;;;;;;1.40;1.30;;;;;;;;;;5016140;28;20219;-26
2023/01/03 05:36:14;;;;;;;1.40;1.30;;;;;;;;;;5018560;28;20672;-26
2023/01/03 05:38:41;;;;;;;0.97;0.97;;;;;;;;;;5031657;28;20233;-27
2023/01/03 05:41:08;;;;;;;1.30;1.20;;;;;;;;;;5033911;28;20230;-27
2023/01/03 05:43:35;;;;;;;1.50;1.40;;;;;;;;;;5025417;28;20657;-25
2023/01/03 05:46:02;;;;;;;1.10;1.10;;;;;;;;;;5030437;28;20210;-27
2023/01/03 05:48:29;;;;;;;1.10;1.10;;;;;;;;;;5033901;28;20227;-27
2023/01/03 05:50:58;;;;;;;1.63;1.00;;;;;;;;;;5031596;28;20230;-27
2023/01/03 05:53:26;;;;;;;0.90;0.90;;;;;;;;;;5028474;28;20230;-27
2023/01/03 05:55:53;;;;;;;1.20;1.10;;;;;;;;;;5021043;28;20675;-27
2023/01/03 05:58:20;;;;;;;1.43;1.30;;;;;;;;;;5023042;28;20211;-28
2023/01/03 06:00:47;;;;;;;1.13;1.00;;;;;;;;;;5033059;28;20227;-29
2023/01/03 06:03:14;;;;;;;1.80;1.07;;;;;;;;;;5033476;28;20214;-27
2023/01/03 06:05:41;;;;;;;1.00;1.00;;;;;;;;;;5012718;28;20219;-26
2023/01/03 06:08:09;;;;;;;1.53;1.17;;;;;;;;;;5016638;28;20655;-26
2023/01/03 06:10:39;;;;;;;1.00;1.00;;;;;;;;;;5037948;28;20726;-30
2023/01/03 06:13:06;;;;;;;0.70;0.70;;;;;;;;;;5029882;28;20206;-27
2023/01/03 06:15:33;;;;;;;1.83;1.10;;;;;;;;;;5037658;28;20213;-27
2023/01/03 06:18:01;;;;;;;1.30;1.20;;;;;;;;;;5039865;28;20206;-29
2023/01/03 06:20:28;;;;;;;0.77;0.73;;;;;;;;;;5046818;28;20867;-27
2023/01/03 06:22:55;;;;;;;3.20;1.37;;;;;;;;;;5032349;28;20207;-27
2023/01/03 06:25:24;;;;;;;2.00;1.13;;;;;;;;;;5035808;28;20208;-27
2023/01/03 06:27:51;;;;;;;0.90;0.90;;;;;;;;;;5031092;28;20217;-26
2023/01/03 06:30:19;;;;;;;1.00;1.00;;;;;;;;;;5032025;28;20206;-27
2023/01/03 06:32:46;;;;;;;2.40;0.80;;;;;;;;;;5038030;28;20237;-26
2023/01/03 06:35:14;;;;;;;1.83;1.40;;;;;;;;;;5033515;28;20660;-27
2023/01/03 06:37:42;;;;;;;1.17;1.07;;;;;;;;;;5032543;28;20206;-29
2023/01/03 06:40:10;;;;;;;2.10;1.13;;;;;;;;;;5036376;28;20679;-27
2023/01/03 06:42:42;;;;;;;2.67;1.10;;;;;;;;;;5027064;28;20227;-30
2023/01/03 06:53:42;;;;;;;2.60;1.30;;;;;;;;;;4999177;28;20217;-27
2023/01/03 06:56:10;;;;;;;2.63;1.03;;;;;;;;;;5032125;28;20745;-27
2023/01/03 06:58:38;;;;;;;3.87;1.50;;;;;;;;;;5025131;28;20222;-26
2023/01/03 07:01:06;;;;;;;3.40;1.20;;;;;;;;;;5029268;28;20241;-27
2023/01/03 07:03:34;;;;;;;2.50;1.50;;;;;;;;;;5032252;28;20553;-29
2023/01/03 07:06:01;;;;;;;2.33;1.30;;;;;;;;;;5027796;28;20215;-28
2023/01/03 07:08:28;;;;;;;1.03;0.97;;;;;;;;;;5018760;28;20214;-26
2023/01/03 07:10:55;;;;;;;0.90;0.90;;;;;;;;;;5032050;28;20211;-29
2023/01/03 07:16:13;;;;;;;1.33;1.10;;;;;;;;;;5031469;28;20206;-28
2023/01/03 07:18:40;;;;;;;2.93;1.60;;;;;;;;;;5031987;28;20216;-27
2023/01/03 07:21:07;;;;;;;1.60;1.30;;;;;;;;;;5024324;28;20234;-28
2023/01/03 07:23:34;;;;;;;1.47;1.30;;;;;;;;;;5028785;28;20663;-28
2023/01/03 07:26:01;;;;;;;2.03;1.40;;;;;;;;;;5032327;28;20202;-27
2023/01/03 07:28:28;;;;;;;1.90;1.23;;;;;;;;;;5019506;28;20211;-29
2023/01/03 07:31:00;;;;;;;1.30;1.10;;;;;;;;;;5029172;28;20689;-27
2023/01/03 07:33:29;;;;;;;2.73;1.20;;;;;;;;;;5032203;28;20220;-26
2023/01/03 07:36:00;;;;;;;1.50;1.40;;;;;;;;;;5035772;28;20218;-26
2023/01/03 07:38:27;;;;;;;2.10;1.40;;;;;;;;;;5031398;28;20202;-27
2023/01/03 07:40:56;;;;;;;1.50;1.40;;;;;;;;;;5030563;28;20222;-29
2023/01/03 07:43:38;;;;;;;2.10;1.30;;;;;;;;;;5022654;28;20588;-28
2023/01/03 07:46:06;;;;;;;1.40;1.30;;;;;;;;;;5035597;28;20198;-26
2023/01/03 07:48:35;;;;;;;1.53;1.40;;;;;;;;;;5046057;28;20201;-29
2023/01/03 07:51:02;;;;;;;3.33;1.33;;;;;;;;;;5036123;28;20225;-26
2023/01/03 07:53:30;;;;;;;2.80;1.80;;;;;;;;;;5030775;28;20203;-26
2023/01/03 07:56:02;;;;;;;1.60;1.50;;;;;;;;;;5036072;28;20605;-27
2023/01/03 07:58:29;;;;;;;1.63;1.47;;;;;;;;;;5031088;28;20215;-25
2023/01/03 08:00:56;;;;;;;1.80;1.70;;;;;;;;;;5035178;28;20313;-25
2023/01/03 08:03:24;;;;;;;1.47;1.37;;;;;;;;;;5036032;28;20203;-27
2023/01/03 08:05:52;;;;;;;1.10;1.00;;;;;;;;;;5032961;28;20214;-27
2023/01/03 08:08:19;;;;;;;1.20;1.10;;;;;;;;;;5027511;28;20211;-27
2023/01/03 08:13:31;;;;;;;1.00;1.00;;;;;;;;;;5026376;28;20205;-29
2023/01/03 08:15:58;;;;;;;2.60;1.47;;;;;;;;;;5027555;28;20203;-28
2023/01/03 08:18:27;;;;;;;1.40;1.30;;;;;;;;;;5035041;28;20206;-27
2023/01/03 08:20:56;;;;;;;2.40;1.50;;;;;;;;;;5029879;28;20234;-28
2023/01/03 08:23:23;;;;;;;1.90;1.27;;;;;;;;;;5027788;28;20302;-26
2023/01/03 08:25:50;;;;;;;1.57;1.07;;;;;;;;;;5035105;28;20687;-25
2023/01/03 08:28:17;;;;;;;2.23;1.37;;;;;;;;;;5023532;28;20203;-27
2023/01/03 08:30:46;;;;;;;1.40;1.30;;;;;;;;;;5034246;28;22051;-27
2023/01/03 08:33:15;;;;;;;1.20;1.20;;;;;;;;;;5035258;28;20214;-25
2023/01/03 08:35:44;;;;;;;2.17;1.30;;;;;;;;;;5031740;28;20548;-26
2023/01/03 08:38:15;;;;;;;1.67;1.33;;;;;;;;;;5017466;28;20549;-27
2023/01/03 08:40:42;;;;;;;1.70;1.60;;;;;;;;;;5033883;28;20194;-28
2023/01/03 08:43:10;;;;;;;1.87;1.77;;;;;;;;;;5031081;28;20199;-28
2023/01/03 08:45:38;;;;;;;1.70;1.60;;;;;;;;;;5031330;28;20293;-27
2023/01/03 08:48:06;;;;;;;3.87;2.23;;;;;;;;;;5034642;28;20206;-26
2023/01/03 08:50:33;;;;;;;1.60;1.50;;;;;;;;;;5034640;28;20682;-26
2023/01/03 08:53:00;;;;;;;3.17;1.90;;;;;;;;;;5025916;28;20207;-26
2023/01/03 08:55:29;;;;;;;2.73;1.77;;;;;;;;;;5031919;28;20198;-29
2023/01/03 08:57:58;;;;;;;2.70;1.90;;;;;;;;;;5029135;28;20202;-27
2023/01/03 09:00:25;;;;;;;3.13;1.50;;;;;;;;;;5028134;28;20211;-27
2023/01/03 09:02:52;;;;;;;2.57;1.80;;;;;;;;;;5035000;28;20223;-27
2023/01/03 09:05:19;;;;;;;2.73;1.70;;;;;;;;;;5029742;28;20215;-26
2023/01/03 09:07:52;;;;;;;1.73;1.63;;;;;;;;;;5026537;28;20282;-27
2023/01/03 09:10:19;;;;;;;1.90;1.80;;;;;;;;;;5033802;28;20558;-26
2023/01/03 09:12:47;;;;;;;4.60;2.10;;;;;;;;;;5030536;28;20237;-27
2023/01/03 09:15:14;;;;;;;2.23;2.03;;;;;;;;;;5026194;28;20213;-26
2023/01/03 09:17:43;;;;;;;1.70;1.60;;;;;;;;;;5034261;28;20207;-26
2023/01/03 09:20:11;;;;;;;1.70;1.60;;;;;;;;;;5034121;28;20249;-26
2023/01/03 09:22:38;;;;;;;2.70;2.00;;;;;;;;;;5021949;28;20231;-26
2023/01/03 09:25:06;;;;;;;4.80;2.43;;;;;;;;;;5028548;28;20665;-27
2023/01/03 09:27:33;;;;;;;3.80;2.90;;;;;;;;;;5028980;28;20199;-27
2023/01/03 09:30:01;;;;;;;3.87;2.80;;;;;;;;;;5025081;28;20210;-25
2023/01/03 09:32:28;;;;;;;4.00;2.57;;;;;;;;;;5028557;28;20239;-25
2023/01/03 09:34:56;;;;;;;4.33;2.67;;;;;;;;;;5031889;28;20764;-25
2023/01/03 09:37:23;;;;;;;5.80;2.37;;;;;;;;;;5021988;28;20211;-28
2023/01/03 09:39:50;;;;;;;3.03;2.37;;;;;;;;;;5033819;28;20202;-29
2023/01/03 09:45:05;;;;;;;3.10;2.63;;;;;;;;;;5030543;28;20198;-28
2023/01/03 09:47:35;;;;;;;3.57;2.80;;;;;;;;;;5033039;28;20211;-27
2023/01/03 09:50:03;;;;;;;3.60;2.40;;;;;;;;;;5032520;28;20765;-28
2023/01/03 10:03:49;;;;;;;3.50;3.20;;;;;;;;;;5033727;28;20233;-28
2023/01/03 10:06:23;;;;;;;3.20;2.70;;;;;;;;;;5027327;28;20203;-28
2023/01/03 10:08:57;;;;;;;5.20;3.43;;;;;;;;;;5032203;28;20284;-29
2023/01/03 10:11:29;;;;;;;4.87;3.40;;;;;;;;;;5033453;28;20218;-26
2023/01/03 10:14:05;;;;;;;4.30;3.63;;;;;;;;;;5026591;28;20212;-27
2023/01/03 10:16:40;;;;;;;5.17;3.63;;;;;;;;;;5030688;28;20214;-26
2023/01/03 10:19:13;;;;;;;3.57;3.27;;;;;;;;;;5033350;28;20259;-28
2023/01/03 10:21:44;;;;;;;3.30;2.97;;;;;;;;;;5022643;28;20231;-26
2023/01/03 10:24:17;;;;;;;4.73;3.00;;;;;;;;;;5028586;28;20238;-27
2023/01/03 10:26:44;;;;;;;4.70;3.03;;;;;;;;;;5034185;28;20252;-27
2023/01/03 10:29:12;;;;;;;3.77;3.13;;;;;;;;;;5025861;28;20853;-28
2023/01/03 10:31:47;;;;;;;5.70;3.77;;;;;;;;;;5032987;28;20225;-28
2023/01/03 10:34:14;;;;;;;4.57;2.77;;;;;;;;;;5034342;28;20225;-25
2023/01/03 10:36:41;;;;;;;2.73;2.53;;;;;;;;;;5027136;28;20207;-28
2023/01/03 10:39:09;;;;;;;2.73;2.53;;;;;;;;;;5033497;28;20205;-26
2023/01/03 10:41:40;;;;;;;4.73;2.60;;;;;;;;;;5033479;28;20231;-29
2023/01/03 10:44:08;;;;;;;2.60;2.40;;;;;;;;;;5027495;28;20210;-27
2023/01/03 10:46:49;;;;;;;2.90;2.40;;;;;;;;;;5030426;28;20297;-26
2023/01/03 10:49:20;;;;;;;2.83;2.53;;;;;;;;;;5033943;28;20217;-26
2023/01/03 10:51:52;;;;;;;3.07;2.77;;;;;;;;;;5033507;28;20219;-27
2023/01/03 10:54:24;;;;;;;2.83;2.10;;;;;;;;;;5025386;28;20206;-28
2023/01/03 10:56:52;;;;;;;2.43;2.13;;;;;;;;;;5025638;28;20470;-28
2023/01/03 10:59:23;;;;;;;2.90;2.30;;;;;;;;;;5029415;28;20217;-27
2023/01/03 11:01:57;;;;;;;4.20;2.50;;;;;;;;;;5029534;28;20223;-26
2023/01/03 11:04:25;;;;;;;2.80;2.53;;;;;;;;;;5032733;28;20210;-26
2023/01/03 11:06:58;;;;;;;1.80;1.70;;;;;;;;;;5021304;28;20222;-27
2023/01/03 11:09:28;;;;;;;3.30;2.03;;;;;;;;;;5031480;28;20205;-25
2023/01/03 11:12:00;;;;;;;26.83;12.53;;;;;;;;;;5032396;28;20313;-27
2023/01/03 11:14:28;;;;;;;8.93;4.57;;;;;;;;;;5022432;28;20207;-28
2023/01/03 11:16:56;;;;;;;2.10;1.70;;;;;;;;;;5032258;28;20293;-26
2023/01/03 11:19:26;;;;;;;2.00;1.90;;;;;;;;;;5032140;28;20214;-28
2023/01/03 11:21:57;;;;;;;2.70;2.17;;;;;;;;;;5026251;28;20236;-27
2023/01/03 11:24:32;;;;;;;3.20;1.97;;;;;;;;;;5029225;28;20209;-28
2023/01/03 11:27:03;;;;;;;1.93;1.60;;;;;;;;;;5030362;28;20198;-25
2023/01/03 11:29:43;;;;;;;1.60;1.50;;;;;;;;;;5025638;28;20213;-28
2023/01/03 11:32:16;;;;;;;2.60;1.80;;;;;;;;;;5032041;28;20696;-27
2023/01/03 11:34:52;;;;;;;3.43;1.73;;;;;;;;;;5032578;28;20221;-27
2023/01/03 11:37:26;;;;;;;2.37;1.90;;;;;;;;;;5029342;28;20229;-28
2023/01/03 11:40:00;;;;;;;2.00;1.70;;;;;;;;;;5022519;28;20203;-28
2023/01/03 11:42:35;;;;;;;1.90;1.70;;;;;;;;;;5026326;28;20231;-27
2023/01/03 11:45:11;;;;;;;2.60;1.70;;;;;;;;;;5025967;28;20210;-26
2023/01/03 11:47:43;;;;;;;3.50;1.80;;;;;;;;;;5031253;28;20202;-27
2023/01/03 11:50:23;;;;;;;23.03;11.40;;;;;;;;;;5032126;28;20194;-26
2023/01/03 11:52:56;;;;;;;4.27;2.90;;;;;;;;;;5025962;28;20195;-25
2023/01/03 11:55:50;;;;;;;6.60;3.27;;;;;;;;;;5028836;28;20191;-28
2023/01/03 11:58:37;;;;;;;9.17;4.33;;;;;;;;;;5003966;28;20207;-28
2023/01/03 12:01:08;;;;;;;3.90;2.77;;;;;;;;;;5029222;28;20233;-27
2023/01/03 12:03:41;;;;;;;2.20;1.70;;;;;;;;;;5030272;28;20578;-28
2023/01/03 12:06:11;;;;;;;3.03;1.60;;;;;;;;;;5018957;28;20199;-27
2023/01/03 12:08:44;;;;;;;1.57;1.30;;;;;;;;;;5030755;28;20211;-27
2023/01/03 12:11:17;;;;;;;1.50;1.10;;;;;;;;;;5031656;28;20697;-29
2023/01/03 12:13:50;;;;;;;2.60;1.13;;;;;;;;;;5018749;28;20383;-28
2023/01/03 12:16:22;;;;;;;1.43;1.30;;;;;;;;;;5018852;28;20219;-28
2023/01/03 12:18:53;;;;;;;1.40;0.70;;;;;;;;;;5022910;28;20218;-26
2023/01/03 12:21:22;;;;;;;1.43;0.50;;;;;;;;;;5031996;28;20238;-29
2023/01/03 12:23:53;;;;;;;0.93;0.80;;;;;;;;;;5031412;28;20225;-28
2023/01/03 12:26:23;;;;;;;1.50;0.80;;;;;;;;;;5032366;28;20198;-26
2023/01/03 12:28:52;;;;;;;0.90;0.90;;;;;;;;;;5022928;28;20207;-29
2023/01/03 12:31:22;;;;;;;2.03;0.90;;;;;;;;;;5032043;28;20234;-27
2023/01/03 12:33:54;;;;;;;1.50;0.77;;;;;;;;;;5026078;28;20557;-27
2023/01/03 12:36:26;;;;;;;0.70;0.70;;;;;;;;;;5024024;28;20199;-29
2023/01/03 12:38:58;;;;;;;0.70;0.67;;;;;;;;;;5026299;28;20417;-29
2023/01/03 12:41:28;;;;;;;1.00;0.77;;;;;;;;;;5034417;28;20234;-29
2023/01/03 12:43:59;;;;;;;0.80;0.80;;;;;;;;;;5022534;28;20210;-26
2023/01/03 12:46:30;;;;;;;0.37;0.37;;;;;;;;;;5034124;28;20657;-28
2023/01/03 12:48:58;;;;;;;0.97;0.60;;;;;;;;;;5034298;28;20213;-28
2023/01/03 12:51:26;;;;;;;0.70;0.70;;;;;;;;;;5026599;28;20238;-28
2023/01/03 12:54:04;;;;;;;2.47;0.90;;;;;;;;;;5027853;28;20209;-26
2023/01/03 12:56:44;;;;;;;0.43;0.43;;;;;;;;;;5034420;28;20262;-27
2023/01/03 12:59:17;;;;;;;0.97;0.57;;;;;;;;;;5022976;28;20563;-28
2023/01/03 13:01:46;;;;;;;0.50;0.50;;;;;;;;;;5032898;28;20222;-27
2023/01/03 13:04:16;;;;;;;0.60;0.60;;;;;;;;;;5034669;28;20227;-29
2023/01/03 13:06:47;;;;;;;1.37;0.70;;;;;;;;;;5020772;28;20831;-26
2023/01/03 13:09:20;;;;;;;0.70;0.60;;;;;;;;;;5029208;28;20215;-26
2023/01/03 13:11:50;;;;;;;0.60;0.60;;;;;;;;;;5034358;28;20222;-26
2023/01/03 13:14:18;;;;;;;0.40;0.40;;;;;;;;;;5023368;28;20853;-26
2023/01/03 13:16:47;;;;;;;0.60;0.60;;;;;;;;;;5032911;28;20199;-27
2023/01/03 13:19:40;;;;;;;1.70;0.70;;;;;;;;;;5033177;28;20207;-28
2023/01/03 13:22:19;;;;;;;1.33;0.50;;;;;;;;;;5019517;28;20222;-27
2023/01/03 13:24:48;;;;;;;0.73;0.60;;;;;;;;;;5029155;28;20198;-26
2023/01/03 13:27:22;;;;;;;0.50;0.50;;;;;;;;;;5029351;28;20257;-28
2023/01/03 13:29:55;;;;;;;2.87;0.60;;;;;;;;;;5025492;28;20209;-25
2023/01/03 13:32:26;;;;;;;1.53;0.60;;;;;;;;;;5032953;28;20560;-27
2023/01/03 13:35:11;;;;;;;1.63;0.70;;;;;;;;;;5033839;28;20264;-28
2023/01/03 13:37:44;;;;;;;1.03;0.63;;;;;;;;;;5027099;28;20211;-27
2023/01/03 13:40:21;;;;;;;1.23;0.67;;;;;;;;;;5029426;28;20194;-27
2023/01/03 13:42:49;;;;;;;1.07;0.80;;;;;;;;;;5014355;28;20684;-26
2023/01/03 13:45:35;;;;;;;0.60;0.60;;;;;;;;;;5029282;28;20218;-28
2023/01/03 13:48:16;;;;;;;0.50;0.43;;;;;;;;;;5024809;28;20210;-28
2023/01/03 13:51:02;;;;;;;1.93;0.80;;;;;;;;;;5032819;28;20653;-28
2023/01/03 13:53:30;;;;;;;1.33;0.70;;;;;;;;;;5025041;28;20657;-27
2023/01/03 13:55:59;;;;;;;0.77;0.60;;;;;;;;;;5032017;28;20225;-27
2023/01/03 13:58:30;;;;;;;0.57;0.57;;;;;;;;;;5022925;28;20213;-26
2023/01/03 14:00:59;;;;;;;0.50;0.50;;;;;;;;;;5030576;28;20229;-26
2023/01/03 14:03:44;;;;;;;2.63;0.60;;;;;;;;;;5033222;28;20218;-26
2023/01/03 14:06:23;;;;;;;0.70;0.70;;;;;;;;;;5028921;28;20209;-27
2023/01/03 14:09:07;;;;;;;2.23;0.60;;;;;;;;;;5024658;28;20199;-27
2023/01/03 14:14:38;;;;;;;0.63;0.63;;;;;;;;;;5479986;22;20328;-38
2023/01/03 14:17:23;;;;;;;1.53;0.90;;;;;;;;;;5028356;28;20206;-34
2023/01/03 14:20:03;;;;;;;0.70;0.70;;;;;;;;;;5033842;28;20249;-34
2023/01/03 14:28:56;;;;;;;0.70;0.63;;;;;;;;;;5025647;28;20207;-34
2023/01/03 14:31:55;;;;;;;1.60;0.80;;;;;;;;;;5022499;28;20593;-37
2023/01/03 14:37:40;;;;;;;0.80;0.63;;;;;;;;;;5025564;28;20240;-38
2023/01/03 14:40:34;;;;;;;1.03;0.90;;;;;;;;;;5027423;28;20198;-35
2023/01/03 14:43:24;;;;;;;0.60;0.60;;;;;;;;;;5030633;28;20227;-32
2023/01/03 14:46:28;;;;;;;2.57;0.87;;;;;;;;;;5027474;28;20208;-33
2023/01/03 14:49:14;;;;;;;0.60;0.60;;;;;;;;;;5013723;28;20199;-35
2023/01/03 14:51:53;;;;;;;0.77;0.50;;;;;;;;;;5022969;28;20222;-34
2023/01/03 14:54:39;;;;;;;0.93;0.77;;;;;;;;;;5030421;28;20206;-38
2023/01/03 14:57:34;;;;;;;0.50;0.50;;;;;;;;;;5028042;28;20252;-35
2023/01/03 15:02:53;;;;;;;0.63;0.40;;;;;;;;;;5034739;28;20258;-37
2023/01/03 15:05:39;;;;;;;2.10;0.50;;;;;;;;;;5033393;28;20279;-32
2023/01/03 15:08:21;;;;;;;0.60;0.60;;;;;;;;;;5028645;28;20237;-32
2023/01/03 15:11:10;;;;;;;0.83;0.43;;;;;;;;;;5025573;28;20233;-34
2023/01/03 15:14:08;;;;;;;;;;;;;;;;;;;;;
2023/01/03 15:16:43;;;;;;;2.70;1.20;;;;;;;;;;5032028;28;20665;-34
2023/01/03 15:19:25;;;;;;;1.77;1.17;;;;;;;;;;5033219;28;20212;-31
2023/01/03 15:22:24;;;;;;;1.50;1.00;;;;;;;;;;5032183;28;20317;-39
2023/01/03 15:25:16;;;;;;;1.53;1.33;;;;;;;;;;5014596;28;20227;-30
2023/01/03 15:31:11;;;;;;;4.03;1.40;;;;;;;;;;5024288;28;20218;-36
2023/01/03 15:34:02;;;;;;;3.23;2.07;;;;;;;;;;5033218;28;20257;-37
2023/01/03 15:36:55;;;;;;;3.67;1.80;;;;;;;;;;5027092;28;20246;-32
2023/01/03 15:39:53;;;;;;;2.00;1.60;;;;;;;;;;5029733;28;20211;-33
2023/01/03 15:45:26;;;;;;;0.97;0.70;;;;;;;;;;5029338;28;20232;-34
2023/01/03 15:48:02;;;;;;;1.63;1.10;;;;;;;;;;5026556;28;20253;-38
2023/01/03 15:51:02;;;;;;;0.87;0.73;;;;;;;;;;5033649;28;20256;-31
2023/01/03 15:53:44;;;;;;;2.57;1.00;;;;;;;;;;5024070;28;20210;-38
2023/01/03 15:56:19;;;;;;;3.33;1.13;;;;;;;;;;5035111;28;20203;-35
2023/01/03 15:59:13;;;;;;;1.43;0.60;;;;;;;;;;5028677;28;20231;-35
2023/01/03 16:01:46;;;;;;;0.70;0.70;;;;;;;;;;5036384;28;20300;-33
2023/01/03 16:07:09;;;;;;;5.73;1.70;;;;;;;;;;5021421;28;20274;-34
2023/01/03 16:09:42;;;;;;;1.20;1.10;;;;;;;;;;5033877;28;20207;-32
2023/01/03 16:12:29;;;;;;;1.17;1.10;;;;;;;;;;5035156;28;20284;-34
2023/01/03 16:21:25;;;;;;;1.17;1.17;;;;;;;;;;5023817;28;20222;-32
2023/01/03 16:24:01;;;;;;;2.70;1.43;;;;;;;;;;5034866;28;20236;-34
2023/01/03 16:29:30;;;;;;;2.17;1.23;;;;;;;;;;5028997;28;20229;-32
2023/01/03 16:32:20;;;;;;;1.87;1.33;;;;;;;;;;5035883;28;20226;-33
2023/01/03 16:35:12;;;;;;;3.87;1.17;;;;;;;;;;5035921;28;20203;-28
2023/01/03 16:38:07;;;;;;;1.50;1.30;;;;;;;;;;5023827;28;20217;-35
2023/01/03 16:41:11;;;;;;;2.63;1.30;;;;;;;;;;5035555;28;20294;-34
2023/01/03 16:43:56;;;;;;;2.37;2.27;;;;;;;;;;5027205;28;20226;-30
2023/01/03 16:49:31;;;;;;;6.03;3.30;;;;;;;;;;5026708;28;20214;-30
2023/01/03 16:52:12;;;;;;;2.57;1.80;;;;;;;;;;5033693;28;20309;-36
2023/01/03 16:54:51;;;;;;;1.77;1.40;;;;;;;;;;5034987;28;20206;-33
2023/01/03 16:57:31;;;;;;;2.27;1.87;;;;;;;;;;5034236;28;20226;-35
2023/01/03 17:00:15;;;;;;;3.10;2.40;;;;;;;;;;5031492;28;20210;-33
2023/01/03 17:03:05;;;;;;;4.63;2.90;;;;;;;;;;5035330;28;20233;-34
2023/01/03 17:05:47;;;;;;;3.43;2.20;;;;;;;;;;5030914;28;20211;-34
2023/01/03 17:16:31;;;;;;;3.87;2.13;;;;;;;;;;5026095;28;20254;-26
2023/01/03 17:19:17;;;;;;;3.87;2.50;;;;;;;;;;5041766;28;20209;-26
2023/01/03 17:25:16;;;;;;;1.87;1.40;;;;;;;;;;5025695;28;20230;-38
2023/01/03 17:30:46;;;;;;;3.10;1.80;;;;;;;;;;5173333;22;20230;-37
2023/01/03 17:33:24;;;;;;;3.13;1.83;;;;;;;;;;5283621;23;20257;-36
2023/01/03 17:36:07;;;;;;;1.37;1.27;;;;;;;;;;5025705;28;20203;-36
2023/01/03 17:38:49;;;;;;;1.40;1.30;;;;;;;;;;5035126;28;20277;-31
2023/01/03 17:44:26;;;;;;;2.37;1.27;;;;;;;;;;5022427;28;20306;-27
2023/01/03 17:50:11;;;;;;;2.70;2.30;;;;;;;;;;5034394;28;20221;-29
2023/01/03 17:52:46;;;;;;;3.50;2.30;;;;;;;;;;5033885;28;20230;-28
2023/01/03 17:55:21;;;;;;;2.40;1.63;;;;;;;;;;5027500;28;20276;-28
2023/01/03 17:58:02;;;;;;;2.83;1.83;;;;;;;;;;5015887;28;20203;-27
2023/01/03 18:00:33;;;;;;;5.50;2.13;;;;;;;;;;5043476;23;20217;-22
2023/01/03 18:03:18;;;;;;;3.00;1.93;;;;;;;;;;5023628;28;20281;-28
2023/01/03 18:06:10;;;;;;;2.40;2.20;;;;;;;;;;5034348;28;20237;-28
2023/01/03 18:08:50;;;;;;;5.67;3.17;;;;;;;;;;5015853;28;20286;-26
2023/01/03 18:11:38;;;;;;;2.30;2.10;;;;;;;;;;5028914;28;20251;-25
2023/01/03 18:14:28;;;;;;;4.27;3.10;;;;;;;;;;5002407;28;20199;-26
2023/01/03 18:17:14;;;;;;;;;;;;;;;;;;;;;
2023/01/03 18:19:47;;;;;;;5.47;2.43;;;;;;;;;;5012483;28;20222;-27
2023/01/03 18:22:40;;;;;;;3.53;2.70;;;;;;;;;;5003921;28;20257;-25
2023/01/03 18:25:16;;;;;;;3.67;3.00;;;;;;;;;;4999956;28;20228;-26
2023/01/03 18:30:26;;;;;;;5.10;3.97;;;;;;;;;;5144992;22;20245;-23
2023/01/03 18:35:55;;;;;;;7.37;3.40;;;;;;;;;;5009811;28;20219;-24
2023/01/03 18:38:43;;;;;;;5.70;4.10;;;;;;;;;;5011058;28;20218;-23
2023/01/03 18:47:16;;;;;;;9.83;4.70;;;;;;;;;;5011570;28;20303;-26
2023/01/03 18:49:58;;;;;;;6.83;4.47;;;;;;;;;;4995930;28;20307;-26
2023/01/03 18:55:41;;;;;;;6.80;4.97;;;;;;;;;;5010366;28;20204;-24
2023/01/03 19:01:16;;;;;;;9.23;6.13;;;;;;;;;;4995098;28;20232;-25